Current Weather

Arar

Arar, Saudi Arabia (OERR)

Report from: Monday, July 22, 2024 12:00 PM +03
Current time: Monday, July 22, 2024 12:52 PM +03

Nearby weather – Weather history – Daily summaries
Weather forecast

Temperature40.0°C (104.0°F)
Heat index37.2°C (99.0°F)
Dew point4.0°C (39.2°F)
Winds 8 kts (4.1 m/s, 9.2 mph) North-Northwest (330°)
Clouds Sky clear
Altimeter29.65 in.Hg (1004 mB)
Relative humidity11 %
Density altitude3,241 ft. (988 m)
Remarks Ceiling and visibility OK
No significant changes expected in the next two hours
Flight conditions Visual Meteorological Conditions
Raw dataOERR 220900Z 33008KT CAVOK 40/04 Q1004 NOSIG
An error has occurred. This application may no longer respond until reloaded. Reload 🗙